sensor_id;sensor_type;location;lat;lon;timestamp;pressure;altitude;pressure_sealevel;temperature;humidity
38612;BME280;24368;52.156;20.788;2023-08-21T00:01:24;100814.61;;;22.53;100.00
38612;BME280;24368;52.156;20.788;2023-08-21T00:06:26;100808.27;;;22.50;100.00
38612;BME280;24368;52.156;20.788;2023-08-21T00:11:28;100811.61;;;22.48;100.00
38612;BME280;24368;52.156;20.788;2023-08-21T00:16:30;100805.45;;;22.56;100.00
38612;BME280;24368;52.156;20.788;2023-08-21T00:21:31;100803.58;;;22.46;100.00
38612;BME280;24368;52.156;20.788;2023-08-21T00:26:33;100800.36;;;22.44;100.00
38612;BME280;24368;52.156;20.788;2023-08-21T00:31:35;100797.79;;;22.44;100.00
38612;BME280;24368;52.156;20.788;2023-08-21T00:36:37;100803.98;;;22.47;100.00
38612;BME280;24368;52.156;20.788;2023-08-21T00:41:38;100799.45;;;22.50;100.00
38612;BME280;24368;52.156;20.788;2023-08-21T00:46:40;100802.46;;;22.50;100.00
38612;BME280;24368;52.156;20.788;2023-08-21T00:51:42;100811.70;;;22.49;100.00
38612;BME280;24368;52.156;20.788;2023-08-21T00:56:45;100816.09;;;22.47;100.00
38612;BME280;24368;52.156;20.788;2023-08-21T01:01:47;100816.05;;;22.37;100.00
38612;BME280;24368;52.156;20.788;2023-08-21T01:06:49;100816.33;;;22.34;100.00
38612;BME280;24368;52.156;20.788;2023-08-21T01:12:06;100814.55;;;22.29;100.00
38612;BME280;24368;52.156;20.788;2023-08-21T01:17:11;100818.23;;;22.23;100.00
38612;BME280;24368;52.156;20.788;2023-08-21T01:22:15;100822.91;;;22.07;100.00
38612;BME280;24368;52.156;20.788;2023-08-21T01:27:17;100828.42;;;22.03;100.00
38612;BME280;24368;52.156;20.788;2023-08-21T01:32:53;100822.43;;;22.12;100.00
38612;BME280;24368;52.156;20.788;2023-08-21T01:38:05;100819.76;;;22.17;100.00
38612;BME280;24368;52.156;20.788;2023-08-21T01:43:07;100813.11;;;22.06;100.00
38612;BME280;24368;52.156;20.788;2023-08-21T01:48:09;100813.58;;;22.04;100.00
38612;BME280;24368;52.156;20.788;2023-08-21T01:53:11;100811.78;;;21.84;100.00
38612;BME280;24368;52.156;20.788;2023-08-21T01:58:13;100817.25;;;21.80;100.00
38612;BME280;24368;52.156;20.788;2023-08-21T02:03:14;100814.63;;;21.84;100.00
38612;BME280;24368;52.156;20.788;2023-08-21T02:08:17;100810.42;;;21.74;100.00
38612;BME280;24368;52.156;20.788;2023-08-21T02:13:19;100811.65;;;21.63;100.00
38612;BME280;24368;52.156;20.788;2023-08-21T02:18:21;100810.77;;;21.40;100.00
38612;BME280;24368;52.156;20.788;2023-08-21T02:23:23;100810.52;;;21.24;100.00
38612;BME280;24368;52.156;20.788;2023-08-21T02:28:27;100807.36;;;21.26;100.00
38612;BME280;24368;52.156;20.788;2023-08-21T02:33:29;100805.41;;;21.34;100.00
38612;BME280;24368;52.156;20.788;2023-08-21T02:38:31;100802.96;;;21.35;100.00
38612;BME280;24368;52.156;20.788;2023-08-21T02:43:33;100801.31;;;21.38;100.00
38612;BME280;24368;52.156;20.788;2023-08-21T02:48:36;100796.34;;;21.42;100.00
38612;BME280;24368;52.156;20.788;2023-08-21T02:53:37;100801.77;;;21.40;100.00
38612;BME280;24368;52.156;20.788;2023-08-21T02:58:39;100800.29;;;21.37;100.00
38612;BME280;24368;52.156;20.788;2023-08-21T03:03:41;100799.23;;;21.38;100.00
38612;BME280;24368;52.156;20.788;2023-08-21T03:08:43;100801.08;;;21.26;100.00
38612;BME280;24368;52.156;20.788;2023-08-21T03:13:45;100799.41;;;21.23;100.00
38612;BME280;24368;52.156;20.788;2023-08-21T03:18:58;100798.05;;;21.21;100.00
38612;BME280;24368;52.156;20.788;2023-08-21T03:24:00;100794.96;;;21.25;100.00
38612;BME280;24368;52.156;20.788;2023-08-21T03:29:02;100801.20;;;21.17;100.00
38612;BME280;24368;52.156;20.788;2023-08-21T03:34:04;100803.97;;;21.17;100.00
38612;BME280;24368;52.156;20.788;2023-08-21T03:39:06;100800.25;;;21.18;100.00
38612;BME280;24368;52.156;20.788;2023-08-21T03:44:08;100809.46;;;21.06;100.00
38612;BME280;24368;52.156;20.788;2023-08-21T03:49:09;100816.13;;;20.95;100.00
38612;BME280;24368;52.156;20.788;2023-08-21T03:54:11;100816.04;;;20.94;100.00
38612;BME280;24368;52.156;20.788;2023-08-21T03:59:13;100831.39;;;20.85;100.00
38612;BME280;24368;52.156;20.788;2023-08-21T04:04:15;100826.20;;;20.78;100.00
38612;BME280;24368;52.156;20.788;2023-08-21T04:09:17;100816.92;;;20.86;100.00
38612;BME280;24368;52.156;20.788;2023-08-21T04:14:18;100816.69;;;20.83;100.00
38612;BME280;24368;52.156;20.788;2023-08-21T04:19:20;100811.60;;;20.77;100.00
38612;BME280;24368;52.156;20.788;2023-08-21T04:24:22;100819.81;;;20.74;100.00
38612;BME280;24368;52.156;20.788;2023-08-21T04:29:24;100823.30;;;20.74;100.00
38612;BME280;24368;52.156;20.788;2023-08-21T04:34:26;100833.23;;;20.71;100.00
38612;BME280;24368;52.156;20.788;2023-08-21T04:39:27;100829.55;;;20.73;100.00
38612;BME280;24368;52.156;20.788;2023-08-21T04:44:30;100815.73;;;20.86;100.00
38612;BME280;24368;52.156;20.788;2023-08-21T04:49:32;100818.16;;;20.92;100.00
38612;BME280;24368;52.156;20.788;2023-08-21T04:54:34;100826.08;;;20.98;100.00
38612;BME280;24368;52.156;20.788;2023-08-21T04:59:36;100834.30;;;20.94;100.00
38612;BME280;24368;52.156;20.788;2023-08-21T05:04:38;100844.68;;;20.96;100.00
38612;BME280;24368;52.156;20.788;2023-08-21T05:09:40;100843.34;;;21.04;100.00
38612;BME280;24368;52.156;20.788;2023-08-21T05:14:42;100837.91;;;21.07;100.00
38612;BME280;24368;52.156;20.788;2023-08-21T05:19:43;100843.20;;;20.96;100.00
38612;BME280;24368;52.156;20.788;2023-08-21T05:24:45;100841.06;;;20.93;100.00
38612;BME280;24368;52.156;20.788;2023-08-21T05:29:47;100842.41;;;20.96;100.00
38612;BME280;24368;52.156;20.788;2023-08-21T05:34:51;100847.52;;;20.93;100.00
38612;BME280;24368;52.156;20.788;2023-08-21T05:39:52;100852.13;;;20.92;100.00
38612;BME280;24368;52.156;20.788;2023-08-21T05:44:54;100854.27;;;20.96;100.00
38612;BME280;24368;52.156;20.788;2023-08-21T05:49:56;100858.48;;;21.02;100.00
38612;BME280;24368;52.156;20.788;2023-08-21T05:54:58;100862.09;;;21.08;100.00
38612;BME280;24368;52.156;20.788;2023-08-21T06:00:00;100869.44;;;21.20;100.00
38612;BME280;24368;52.156;20.788;2023-08-21T06:05:02;100884.10;;;21.26;100.00
38612;BME280;24368;52.156;20.788;2023-08-21T06:10:05;100894.20;;;21.25;100.00
38612;BME280;24368;52.156;20.788;2023-08-21T06:15:08;100902.86;;;21.10;100.00
38612;BME280;24368;52.156;20.788;2023-08-21T06:20:13;100891.34;;;21.04;100.00
38612;BME280;24368;52.156;20.788;2023-08-21T06:25:15;100877.59;;;21.19;100.00
38612;BME280;24368;52.156;20.788;2023-08-21T06:30:17;100898.59;;;21.17;100.00
38612;BME280;24368;52.156;20.788;2023-08-21T06:35:19;100930.99;;;20.98;100.00
38612;BME280;24368;52.156;20.788;2023-08-21T06:40:21;100942.50;;;20.91;100.00
38612;BME280;24368;52.156;20.788;2023-08-21T06:45:23;100950.14;;;20.85;100.00
38612;BME280;24368;52.156;20.788;2023-08-21T06:50:24;100951.55;;;20.80;100.00
38612;BME280;24368;52.156;20.788;2023-08-21T06:55:26;100963.17;;;20.69;100.00
38612;BME280;24368;52.156;20.788;2023-08-21T07:00:28;100968.92;;;20.71;100.00
38612;BME280;24368;52.156;20.788;2023-08-21T07:05:30;100980.64;;;20.75;100.00
38612;BME280;24368;52.156;20.788;2023-08-21T07:10:37;100992.89;;;20.76;100.00
38612;BME280;24368;52.156;20.788;2023-08-21T07:15:39;100997.13;;;20.79;100.00
38612;BME280;24368;52.156;20.788;2023-08-21T07:20:41;101002.50;;;20.70;100.00
38612;BME280;24368;52.156;20.788;2023-08-21T07:25:43;100997.21;;;20.65;100.00
38612;BME280;24368;52.156;20.788;2023-08-21T07:30:45;100996.38;;;20.62;100.00
38612;BME280;24368;52.156;20.788;2023-08-21T07:35:46;100988.73;;;20.67;100.00
38612;BME280;24368;52.156;20.788;2023-08-21T07:40:48;100975.02;;;20.78;100.00
38612;BME280;24368;52.156;20.788;2023-08-21T07:45:50;100978.00;;;20.83;100.00
38612;BME280;24368;52.156;20.788;2023-08-21T07:50:52;100977.52;;;20.97;100.00
38612;BME280;24368;52.156;20.788;2023-08-21T07:56:01;100970.35;;;21.08;100.00
38612;BME280;24368;52.156;20.788;2023-08-21T08:01:05;100969.27;;;21.21;100.00
38612;BME280;24368;52.156;20.788;2023-08-21T08:06:07;100963.80;;;21.40;100.00
38612;BME280;24368;52.156;20.788;2023-08-21T08:11:09;100958.08;;;21.51;100.00
38612;BME280;24368;52.156;20.788;2023-08-21T08:16:10;100955.89;;;21.61;100.00
38612;BME280;24368;52.156;20.788;2023-08-21T08:21:12;100950.39;;;21.81;100.00
38612;BME280;24368;52.156;20.788;2023-08-21T08:26:14;100957.16;;;21.99;100.00
38612;BME280;24368;52.156;20.788;2023-08-21T08:31:17;100948.81;;;21.93;100.00
38612;BME280;24368;52.156;20.788;2023-08-21T08:36:19;100946.44;;;21.96;100.00
38612;BME280;24368;52.156;20.788;2023-08-21T08:41:41;100939.09;;;22.17;100.00
38612;BME280;24368;52.156;20.788;2023-08-21T08:46:45;100932.05;;;22.56;100.00
38612;BME280;24368;52.156;20.788;2023-08-21T08:51:50;100921.09;;;22.74;100.00
38612;BME280;24368;52.156;20.788;2023-08-21T08:56:53;100912.04;;;22.86;100.00
38612;BME280;24368;52.156;20.788;2023-08-21T09:01:55;100910.12;;;23.09;100.00
38612;BME280;24368;52.156;20.788;2023-08-21T09:07:12;100913.95;;;23.21;100.00
38612;BME280;24368;52.156;20.788;2023-08-21T09:12:14;100917.94;;;23.32;100.00
38612;BME280;24368;52.156;20.788;2023-08-21T09:17:16;100919.23;;;23.40;100.00
38612;BME280;24368;52.156;20.788;2023-08-21T09:22:19;100918.52;;;23.50;100.00
38612;BME280;24368;52.156;20.788;2023-08-21T09:27:21;100917.80;;;23.62;100.00
38612;BME280;24368;52.156;20.788;2023-08-21T09:32:23;100919.98;;;23.72;100.00
38612;BME280;24368;52.156;20.788;2023-08-21T09:37:28;100920.38;;;23.87;100.00
38612;BME280;24368;52.156;20.788;2023-08-21T09:42:33;100917.66;;;24.01;99.75
38612;BME280;24368;52.156;20.788;2023-08-21T09:47:36;100921.52;;;24.19;98.57
38612;BME280;24368;52.156;20.788;2023-08-21T09:52:40;100918.39;;;24.26;90.56
38612;BME280;24368;52.156;20.788;2023-08-21T09:57:42;100913.09;;;24.33;90.31
38612;BME280;24368;52.156;20.788;2023-08-21T10:02:48;100908.67;;;24.41;89.97
38612;BME280;24368;52.156;20.788;2023-08-21T10:07:51;100908.81;;;24.55;89.62
38612;BME280;24368;52.156;20.788;2023-08-21T10:12:57;100902.25;;;24.65;85.19
38612;BME280;24368;52.156;20.788;2023-08-21T10:18:21;100900.84;;;24.87;85.42
38612;BME280;24368;52.156;20.788;2023-08-21T10:23:27;100901.52;;;25.04;81.59
38612;BME280;24368;52.156;20.788;2023-08-21T10:28:56;100901.65;;;25.14;75.06
38612;BME280;24368;52.156;20.788;2023-08-21T10:34:08;100903.56;;;25.25;73.42
38612;BME280;24368;52.156;20.788;2023-08-21T10:39:32;100902.95;;;25.42;75.54
38612;BME280;24368;52.156;20.788;2023-08-21T10:49:54;100901.02;;;25.58;68.01
38612;BME280;24368;52.156;20.788;2023-08-21T10:55:00;100900.59;;;25.80;60.28
38612;BME280;24368;52.156;20.788;2023-08-21T11:00:10;100902.42;;;25.98;59.77
38612;BME280;24368;52.156;20.788;2023-08-21T11:05:16;100900.09;;;26.14;57.03
38612;BME280;24368;52.156;20.788;2023-08-21T11:10:22;100900.05;;;26.39;57.21
38612;BME280;24368;52.156;20.788;2023-08-21T11:15:25;100900.96;;;26.53;57.06
38612;BME280;24368;52.156;20.788;2023-08-21T11:20:31;100898.88;;;26.80;56.31
38612;BME280;24368;52.156;20.788;2023-08-21T11:25:38;100901.27;;;26.87;56.32
38612;BME280;24368;52.156;20.788;2023-08-21T11:30:40;100898.88;;;27.06;58.16
38612;BME280;24368;52.156;20.788;2023-08-21T11:35:41;100899.49;;;27.18;58.55
38612;BME280;24368;52.156;20.788;2023-08-21T11:41:05;100894.85;;;27.05;59.64
38612;BME280;24368;52.156;20.788;2023-08-21T11:46:08;100895.33;;;27.12;57.87
38612;BME280;24368;52.156;20.788;2023-08-21T11:51:11;100892.09;;;27.02;56.02
38612;BME280;24368;52.156;20.788;2023-08-21T11:56:15;100887.36;;;26.90;54.53
38612;BME280;24368;52.156;20.788;2023-08-21T12:01:18;100886.30;;;27.10;56.31
38612;BME280;24368;52.156;20.788;2023-08-21T12:06:21;100886.24;;;27.10;52.87
38612;BME280;24368;52.156;20.788;2023-08-21T12:11:23;100886.34;;;27.38;53.01
38612;BME280;24368;52.156;20.788;2023-08-21T12:16:25;100882.11;;;29.29;48.17
38612;BME280;24368;52.156;20.788;2023-08-21T12:21:27;100880.91;;;29.77;45.50
38612;BME280;24368;52.156;20.788;2023-08-21T12:26:29;100885.94;;;27.54;48.93
38612;BME280;24368;52.156;20.788;2023-08-21T12:31:39;100880.56;;;27.53;50.11
38612;BME280;24368;52.156;20.788;2023-08-21T12:36:42;100880.01;;;27.61;49.98
38612;BME280;24368;52.156;20.788;2023-08-21T12:41:45;100878.17;;;28.13;50.39
38612;BME280;24368;52.156;20.788;2023-08-21T12:46:47;100870.80;;;27.93;50.30
38612;BME280;24368;52.156;20.788;2023-08-21T12:51:49;100868.39;;;27.74;51.41
38612;BME280;24368;52.156;20.788;2023-08-21T12:56:51;100864.04;;;27.33;51.81
38612;BME280;24368;52.156;20.788;2023-08-21T13:01:53;100865.80;;;27.10;51.27
38612;BME280;24368;52.156;20.788;2023-08-21T13:06:55;100858.39;;;26.93;53.02
38612;BME280;24368;52.156;20.788;2023-08-21T13:11:57;100850.55;;;26.77;52.63
38612;BME280;24368;52.156;20.788;2023-08-21T13:16:59;100851.00;;;26.88;51.47
38612;BME280;24368;52.156;20.788;2023-08-21T13:22:00;100849.06;;;27.38;49.65
38612;BME280;24368;52.156;20.788;2023-08-21T13:27:02;100844.59;;;27.62;49.67
38612;BME280;24368;52.156;20.788;2023-08-21T13:32:04;100846.67;;;27.71;48.50
38612;BME280;24368;52.156;20.788;2023-08-21T13:37:06;100849.52;;;27.77;48.33
38612;BME280;24368;52.156;20.788;2023-08-21T13:42:08;100852.00;;;27.72;48.24
38612;BME280;24368;52.156;20.788;2023-08-21T13:47:09;100847.16;;;27.63;49.30
38612;BME280;24368;52.156;20.788;2023-08-21T13:52:11;100846.95;;;27.64;49.78
38612;BME280;24368;52.156;20.788;2023-08-21T13:57:13;100844.89;;;27.63;50.48
38612;BME280;24368;52.156;20.788;2023-08-21T14:02:15;100847.17;;;27.54;51.05
38612;BME280;24368;52.156;20.788;2023-08-21T14:07:17;100844.16;;;27.57;50.98
38612;BME280;24368;52.156;20.788;2023-08-21T14:12:19;100838.31;;;27.49;51.21
38612;BME280;24368;52.156;20.788;2023-08-21T14:17:21;100839.08;;;27.49;51.31
38612;BME280;24368;52.156;20.788;2023-08-21T14:22:22;100833.34;;;27.59;51.10
38612;BME280;24368;52.156;20.788;2023-08-21T14:27:24;100835.89;;;27.40;51.85
38612;BME280;24368;52.156;20.788;2023-08-21T14:32:26;100826.81;;;27.21;51.62
38612;BME280;24368;52.156;20.788;2023-08-21T14:37:28;100829.30;;;27.24;53.08
38612;BME280;24368;52.156;20.788;2023-08-21T14:42:30;100830.91;;;27.31;53.29
38612;BME280;24368;52.156;20.788;2023-08-21T14:47:32;100831.99;;;27.46;52.68
38612;BME280;24368;52.156;20.788;2023-08-21T14:52:34;100827.77;;;27.41;53.51
38612;BME280;24368;52.156;20.788;2023-08-21T14:57:35;100825.71;;;27.38;54.00
38612;BME280;24368;52.156;20.788;2023-08-21T15:02:37;100822.42;;;27.02;54.23
38612;BME280;24368;52.156;20.788;2023-08-21T15:07:39;100830.70;;;26.88;54.15
38612;BME280;24368;52.156;20.788;2023-08-21T15:12:40;100826.26;;;26.77;53.89
38612;BME280;24368;52.156;20.788;2023-08-21T15:17:42;100825.41;;;26.71;54.33
38612;BME280;24368;52.156;20.788;2023-08-21T15:22:45;100820.45;;;26.54;55.52
38612;BME280;24368;52.156;20.788;2023-08-21T15:27:47;100818.85;;;26.36;56.34
38612;BME280;24368;52.156;20.788;2023-08-21T15:32:48;100822.33;;;26.27;57.70
38612;BME280;24368;52.156;20.788;2023-08-21T15:37:50;100823.73;;;26.20;57.95
38612;BME280;24368;52.156;20.788;2023-08-21T15:42:52;100820.64;;;26.20;57.87
38612;BME280;24368;52.156;20.788;2023-08-21T15:47:54;100823.70;;;26.21;58.10
38612;BME280;24368;52.156;20.788;2023-08-21T15:52:56;100820.41;;;26.26;58.77
38612;BME280;24368;52.156;20.788;2023-08-21T15:57:58;100817.34;;;26.23;59.46
38612;BME280;24368;52.156;20.788;2023-08-21T16:03:00;100816.14;;;26.26;57.25
38612;BME280;24368;52.156;20.788;2023-08-21T16:08:02;100816.57;;;26.33;57.14
38612;BME280;24368;52.156;20.788;2023-08-21T16:13:04;100813.65;;;26.27;57.69
38612;BME280;24368;52.156;20.788;2023-08-21T16:18:06;100814.80;;;26.23;58.29
38612;BME280;24368;52.156;20.788;2023-08-21T16:23:08;100817.17;;;26.12;59.80
38612;BME280;24368;52.156;20.788;2023-08-21T16:28:09;100814.14;;;26.00;61.52
38612;BME280;24368;52.156;20.788;2023-08-21T16:33:11;100812.05;;;25.92;62.08
38612;BME280;24368;52.156;20.788;2023-08-21T16:38:13;100816.27;;;25.88;62.53
38612;BME280;24368;52.156;20.788;2023-08-21T16:43:16;100813.59;;;25.83;62.39
38612;BME280;24368;52.156;20.788;2023-08-21T16:48:19;100813.75;;;25.87;63.20
38612;BME280;24368;52.156;20.788;2023-08-21T16:53:22;100808.04;;;25.77;64.80
38612;BME280;24368;52.156;20.788;2023-08-21T16:58:24;100803.44;;;25.69;64.86
38612;BME280;24368;52.156;20.788;2023-08-21T17:03:26;100801.26;;;25.54;67.45
38612;BME280;24368;52.156;20.788;2023-08-21T17:08:28;100800.79;;;25.32;67.60
38612;BME280;24368;52.156;20.788;2023-08-21T17:13:30;100806.80;;;25.21;68.51
38612;BME280;24368;52.156;20.788;2023-08-21T17:18:32;100805.73;;;25.04;70.02
38612;BME280;24368;52.156;20.788;2023-08-21T17:23:34;100801.15;;;24.85;71.82
38612;BME280;24368;52.156;20.788;2023-08-21T17:28:35;100802.52;;;24.68;74.20
38612;BME280;24368;52.156;20.788;2023-08-21T17:33:37;100799.54;;;24.47;76.07
38612;BME280;24368;52.156;20.788;2023-08-21T17:38:39;100800.60;;;24.41;76.21
38612;BME280;24368;52.156;20.788;2023-08-21T17:43:41;100805.18;;;24.33;76.59
38612;BME280;24368;52.156;20.788;2023-08-21T17:48:43;100803.80;;;24.18;77.70
38612;BME280;24368;52.156;20.788;2023-08-21T17:53:45;100807.52;;;24.05;79.77
38612;BME280;24368;52.156;20.788;2023-08-21T17:58:47;100811.77;;;23.84;82.36
38612;BME280;24368;52.156;20.788;2023-08-21T18:03:49;100817.41;;;23.91;82.83
38612;BME280;24368;52.156;20.788;2023-08-21T18:08:51;100820.67;;;23.83;83.01
38612;BME280;24368;52.156;20.788;2023-08-21T18:13:52;100826.48;;;23.76;83.88
38612;BME280;24368;52.156;20.788;2023-08-21T18:18:54;100827.33;;;23.67;85.40
38612;BME280;24368;52.156;20.788;2023-08-21T18:23:56;100828.44;;;23.61;85.47
38612;BME280;24368;52.156;20.788;2023-08-21T18:28:58;100829.25;;;23.50;86.12
38612;BME280;24368;52.156;20.788;2023-08-21T18:34:02;100828.95;;;23.44;87.62
38612;BME280;24368;52.156;20.788;2023-08-21T18:39:04;100832.98;;;23.27;91.76
38612;BME280;24368;52.156;20.788;2023-08-21T18:44:05;100830.71;;;23.23;91.94
38612;BME280;24368;52.156;20.788;2023-08-21T18:49:07;100827.39;;;23.33;91.08
38612;BME280;24368;52.156;20.788;2023-08-21T18:54:09;100828.18;;;23.29;89.33
38612;BME280;24368;52.156;20.788;2023-08-21T18:59:11;100829.14;;;23.08;91.39
38612;BME280;24368;52.156;20.788;2023-08-21T19:04:13;100831.82;;;22.88;94.69
38612;BME280;24368;52.156;20.788;2023-08-21T19:09:15;100835.82;;;22.78;96.40
38612;BME280;24368;52.156;20.788;2023-08-21T19:14:17;100837.02;;;22.67;95.08
38612;BME280;24368;52.156;20.788;2023-08-21T19:19:19;100839.91;;;22.61;98.30
38612;BME280;24368;52.156;20.788;2023-08-21T19:24:24;100840.25;;;22.47;99.17
38612;BME280;24368;52.156;20.788;2023-08-21T19:29:27;100838.02;;;22.49;96.68
38612;BME280;24368;52.156;20.788;2023-08-21T19:34:30;100840.56;;;22.54;95.63
38612;BME280;24368;52.156;20.788;2023-08-21T19:39:45;100845.70;;;22.61;95.46
38612;BME280;24368;52.156;20.788;2023-08-21T19:44:48;100843.67;;;22.61;96.04
38612;BME280;24368;52.156;20.788;2023-08-21T19:49:51;100843.84;;;22.52;94.84
38612;BME280;24368;52.156;20.788;2023-08-21T19:54:54;100847.11;;;22.53;94.90
38612;BME280;24368;52.156;20.788;2023-08-21T19:59:58;100847.05;;;22.45;96.14
38612;BME280;24368;52.156;20.788;2023-08-21T20:05:01;100844.38;;;22.44;96.00
38612;BME280;24368;52.156;20.788;2023-08-21T20:10:38;100848.95;;;22.21;98.33
38612;BME280;24368;52.156;20.788;2023-08-21T20:15:45;100850.33;;;22.04;99.61
38612;BME280;24368;52.156;20.788;2023-08-21T20:20:50;100852.52;;;21.87;99.99
38612;BME280;24368;52.156;20.788;2023-08-21T20:25:53;100842.02;;;21.77;100.00
38612;BME280;24368;52.156;20.788;2023-08-21T20:31:04;100842.70;;;21.70;100.00
38612;BME280;24368;52.156;20.788;2023-08-21T20:36:09;100837.38;;;21.57;100.00
38612;BME280;24368;52.156;20.788;2023-08-21T20:41:12;100834.00;;;21.44;99.85
38612;BME280;24368;52.156;20.788;2023-08-21T20:46:16;100837.39;;;21.38;99.46
38612;BME280;24368;52.156;20.788;2023-08-21T20:51:20;100836.03;;;21.45;98.89
38612;BME280;24368;52.156;20.788;2023-08-21T20:56:23;100836.52;;;21.45;99.13
38612;BME280;24368;52.156;20.788;2023-08-21T21:01:26;100832.52;;;21.39;99.51
38612;BME280;24368;52.156;20.788;2023-08-21T21:06:29;100839.09;;;21.44;98.94
38612;BME280;24368;52.156;20.788;2023-08-21T21:11:32;100842.85;;;21.32;99.84
38612;BME280;24368;52.156;20.788;2023-08-21T21:16:47;100843.31;;;21.12;100.00
38612;BME280;24368;52.156;20.788;2023-08-21T21:21:49;100840.16;;;21.07;100.00
38612;BME280;24368;52.156;20.788;2023-08-21T21:26:51;100838.72;;;20.98;100.00
38612;BME280;24368;52.156;20.788;2023-08-21T21:31:54;100844.58;;;20.82;100.00
38612;BME280;24368;52.156;20.788;2023-08-21T21:36:56;100850.18;;;20.68;100.00
38612;BME280;24368;52.156;20.788;2023-08-21T21:41:58;100852.25;;;20.61;100.00
38612;BME280;24368;52.156;20.788;2023-08-21T21:46:59;100850.19;;;20.63;100.00
38612;BME280;24368;52.156;20.788;2023-08-21T21:52:01;100847.77;;;20.78;100.00
38612;BME280;24368;52.156;20.788;2023-08-21T21:57:03;100845.15;;;20.94;100.00
38612;BME280;24368;52.156;20.788;2023-08-21T22:02:05;100852.20;;;20.74;100.00
38612;BME280;24368;52.156;20.788;2023-08-21T22:07:07;100851.63;;;20.51;100.00
38612;BME280;24368;52.156;20.788;2023-08-21T22:12:09;100848.13;;;20.31;100.00
38612;BME280;24368;52.156;20.788;2023-08-21T22:17:14;100859.95;;;20.12;100.00
38612;BME280;24368;52.156;20.788;2023-08-21T22:22:16;100861.08;;;20.15;100.00
38612;BME280;24368;52.156;20.788;2023-08-21T22:27:18;100858.94;;;20.13;100.00
38612;BME280;24368;52.156;20.788;2023-08-21T22:32:21;100859.77;;;20.18;100.00
38612;BME280;24368;52.156;20.788;2023-08-21T22:37:36;100862.74;;;20.25;100.00
38612;BME280;24368;52.156;20.788;2023-08-21T22:42:38;100864.92;;;20.19;100.00
38612;BME280;24368;52.156;20.788;2023-08-21T22:47:40;100866.04;;;20.10;100.00
38612;BME280;24368;52.156;20.788;2023-08-21T22:52:42;100869.33;;;20.06;100.00
38612;BME280;24368;52.156;20.788;2023-08-21T22:57:44;100871.36;;;20.09;100.00
38612;BME280;24368;52.156;20.788;2023-08-21T23:02:48;100873.27;;;20.11;100.00
38612;BME280;24368;52.156;20.788;2023-08-21T23:07:50;100875.49;;;20.13;100.00
38612;BME280;24368;52.156;20.788;2023-08-21T23:12:51;100876.02;;;20.11;100.00
38612;BME280;24368;52.156;20.788;2023-08-21T23:17:54;100872.88;;;20.07;100.00
38612;BME280;24368;52.156;20.788;2023-08-21T23:22:55;100870.52;;;20.07;100.00
38612;BME280;24368;52.156;20.788;2023-08-21T23:27:57;100870.54;;;20.10;100.00
38612;BME280;24368;52.156;20.788;2023-08-21T23:32:59;100874.08;;;20.08;100.00
38612;BME280;24368;52.156;20.788;2023-08-21T23:38:01;100873.46;;;20.04;100.00
38612;BME280;24368;52.156;20.788;2023-08-21T23:43:04;100869.20;;;20.01;100.00
38612;BME280;24368;52.156;20.788;2023-08-21T23:48:06;100868.41;;;20.01;100.00
38612;BME280;24368;52.156;20.788;2023-08-21T23:53:08;100867.67;;;20.05;100.00
38612;BME280;24368;52.156;20.788;2023-08-21T23:58:10;100873.66;;;20.05;100.00
